Time;durP1;ratioP1;P1;durP2;ratioP2;P2;SDS_P1;SDS_P2;PMS_P1;PMS_P2;Temp;Humidity;BMP_temperature;BMP_pressure;BME280_temperature;BME280_humidity;BME280_pressure;Samples;Min_cycle;Max_cycle;Signal;HPM_P1;HPM_P2
2022/02/21 00:00:52;;;;;;;5.22;1.05;;;5.30;99.90;;;;;;4944013;28;20043;-88
2022/02/21 00:03:20;;;;;;;22.05;2.75;;;5.20;99.90;;;;;;4948021;28;20039;-88
2022/02/21 00:05:47;;;;;;;7.38;1.10;;;5.10;99.90;;;;;;4947909;28;20234;-87
2022/02/21 00:08:12;;;;;;;11.93;1.38;;;5.10;99.90;;;;;;4960645;28;20035;-89
2022/02/21 00:10:38;;;;;;;21.02;2.20;;;5.00;99.90;;;;;;4946525;28;20050;-89
2022/02/21 00:13:04;;;;;;;27.88;2.35;;;5.00;99.90;;;;;;4929313;28;20584;-88
2022/02/21 00:15:30;;;;;;;23.33;2.33;;;5.00;99.90;;;;;;4979635;28;20657;-87
2022/02/21 00:17:56;;;;;;;34.55;3.20;;;4.90;99.90;;;;;;4916127;28;20034;-88
2022/02/21 00:20:22;;;;;;;23.85;2.22;;;4.90;99.90;;;;;;4948608;28;20107;-88
2022/02/21 00:22:48;;;;;;;21.13;2.30;;;4.90;99.90;;;;;;4946771;28;20066;-88
2022/02/21 00:25:14;;;;;;;22.58;2.60;;;4.90;99.90;;;;;;4930747;28;20223;-88
2022/02/21 00:27:39;;;;;;;27.35;2.88;;;4.90;99.90;;;;;;4946467;28;20110;-86
2022/02/21 00:30:06;;;;;;;24.00;2.90;;;4.90;99.90;;;;;;4927672;28;20134;-87
2022/02/21 00:32:32;;;;;;;29.55;3.15;;;4.90;99.90;;;;;;4943859;28;20417;-88
2022/02/21 00:34:58;;;;;;;27.17;3.67;;;4.90;99.90;;;;;;4944671;28;20039;-87
2022/02/21 00:37:24;;;;;;;30.25;3.50;;;4.90;99.90;;;;;;4959552;28;20038;-88
2022/02/21 00:39:50;;;;;;;34.63;3.83;;;5.00;99.90;;;;;;4944532;28;20625;-89
2022/02/21 00:42:21;;;;;;;28.92;3.80;;;4.90;99.90;;;;;;4958519;28;20514;-88
2022/02/21 00:44:56;;;;;;;23.08;3.58;;;4.90;99.90;;;;;;4942799;28;20043;-90
2022/02/21 00:47:26;;;;;;;40.15;3.65;;;4.90;99.90;;;;;;4957796;28;20050;-88
2022/02/21 00:49:53;;;;;;;30.15;2.95;;;4.80;99.90;;;;;;4958820;28;20062;-87
2022/02/21 00:52:19;;;;;;;27.17;2.47;;;4.80;99.90;;;;;;4961000;28;20097;-87
2022/02/21 00:54:45;;;;;;;26.75;3.33;;;4.80;99.90;;;;;;4946057;28;20046;-88
2022/02/21 00:57:11;;;;;;;33.88;3.67;;;4.80;99.90;;;;;;4962279;28;20031;-91
2022/02/21 00:59:37;;;;;;;30.02;4.00;;;4.80;99.90;;;;;;4925000;28;20062;-88
2022/02/21 01:02:10;;;;;;;31.70;3.28;;;4.80;99.90;;;;;;4929178;28;20034;-89
2022/02/21 01:04:36;;;;;;;28.17;2.95;;;4.80;99.90;;;;;;4931347;28;20101;-88
2022/02/21 01:07:02;;;;;;;21.42;3.05;;;4.80;99.90;;;;;;4942916;28;20039;-90
2022/02/21 01:09:27;;;;;;;29.73;3.63;;;4.70;99.90;;;;;;4931969;28;20066;-89
2022/02/21 01:11:53;;;;;;;33.05;4.00;;;4.80;99.90;;;;;;4930289;28;20354;-89
2022/02/21 01:14:19;;;;;;;24.25;2.97;;;4.80;99.90;;;;;;4943719;28;20074;-89
2022/02/21 01:16:45;;;;;;;27.40;3.25;;;4.70;99.90;;;;;;4942317;28;20478;-89
2022/02/21 01:19:10;;;;;;;27.38;2.97;;;4.70;99.90;;;;;;4930392;28;20043;-88
2022/02/21 01:21:36;;;;;;;20.23;3.38;;;4.70;99.90;;;;;;4963177;28;20073;-88
2022/02/21 01:24:02;;;;;;;27.70;2.97;;;4.60;99.90;;;;;;4928470;28;20043;-89
2022/02/21 01:26:28;;;;;;;33.13;3.55;;;4.60;99.90;;;;;;4932048;28;20042;-88
2022/02/21 01:28:54;;;;;;;34.38;3.92;;;4.60;99.90;;;;;;4944087;28;20150;-89
2022/02/21 01:31:20;;;;;;;35.97;3.75;;;4.60;99.90;;;;;;4945684;28;20035;-88
2022/02/21 01:33:45;;;;;;;19.65;3.05;;;4.50;99.90;;;;;;4947801;28;20042;-88
2022/02/21 01:36:11;;;;;;;28.02;3.15;;;4.50;99.90;;;;;;4974965;28;20101;-90
2022/02/21 01:38:38;;;;;;;25.60;4.05;;;4.50;99.90;;;;;;4940790;28;20070;-88
2022/02/21 01:41:04;;;;;;;30.95;3.67;;;4.40;99.90;;;;;;4958317;28;20118;-88
2022/02/21 01:43:30;;;;;;;29.23;3.42;;;4.40;99.90;;;;;;4959841;28;20082;-88
2022/02/21 01:45:56;;;;;;;25.98;2.90;;;4.30;99.90;;;;;;4947051;28;20045;-88
2022/02/21 01:48:22;;;;;;;18.73;4.07;;;4.30;99.90;;;;;;4960639;28;20043;-88
2022/02/21 01:50:48;;;;;;;24.33;3.78;;;4.20;99.90;;;;;;4963392;28;20042;-89
2022/02/21 01:53:13;;;;;;;26.08;3.40;;;4.20;99.90;;;;;;4930708;28;20155;-89
2022/02/21 01:55:39;;;;;;;26.10;3.47;;;4.20;99.90;;;;;;4942122;28;20125;-88
2022/02/21 01:58:06;;;;;;;27.23;3.80;;;4.20;99.90;;;;;;4957609;28;20039;-88
2022/02/21 02:00:32;;;;;;;22.27;3.65;;;4.20;99.90;;;;;;4963612;28;20142;-90
2022/02/21 02:02:58;;;;;;;26.08;4.32;;;4.20;99.90;;;;;;4931435;28;20035;-89
2022/02/21 02:05:25;;;;;;;32.03;4.07;;;4.20;99.90;;;;;;4929318;28;20085;-88
2022/02/21 02:07:53;;;;;;;23.38;4.03;;;4.20;99.90;;;;;;4943873;28;20035;-89
2022/02/21 02:10:19;;;;;;;27.02;3.58;;;4.20;99.90;;;;;;4946081;28;20134;-89
2022/02/21 02:12:45;;;;;;;22.20;3.63;;;4.20;99.90;;;;;;4948444;28;20482;-88
2022/02/21 02:15:19;;;;;;;26.05;3.95;;;4.20;99.90;;;;;;4957379;28;20035;-88
2022/02/21 02:17:44;;;;;;;35.97;4.18;;;4.30;99.90;;;;;;4945201;28;20138;-89
2022/02/21 02:20:11;;;;;;;27.88;3.83;;;4.30;99.90;;;;;;4945007;28;20122;-89
2022/02/21 02:22:37;;;;;;;26.73;3.95;;;4.30;99.90;;;;;;4964092;28;20526;-91
2022/02/21 02:25:04;;;;;;;27.80;4.50;;;4.20;99.90;;;;;;4928141;28;20061;-89
2022/02/21 02:27:30;;;;;;;32.15;4.22;;;4.20;99.90;;;;;;4977106;28;20039;-90
2022/02/21 02:29:59;;;;;;;24.15;3.63;;;4.30;99.90;;;;;;4950812;28;20041;-88
2022/02/21 02:32:25;;;;;;;30.73;3.80;;;4.20;99.90;;;;;;4949926;28;20130;-87
2022/02/21 02:34:52;;;;;;;29.55;4.88;;;4.20;99.90;;;;;;4953187;28;20046;-87
2022/02/21 02:37:21;;;;;;;30.85;4.28;;;4.20;99.90;;;;;;4950079;28;20062;-90
2022/02/21 02:39:47;;;;;;;23.30;3.47;;;4.20;99.90;;;;;;4948574;28;20047;-88
2022/02/21 02:42:13;;;;;;;25.02;3.58;;;4.20;99.90;;;;;;4935301;28;20027;-89
2022/02/21 02:44:41;;;;;;;26.13;4.25;;;4.10;99.90;;;;;;4929579;28;20084;-89
2022/02/21 02:47:08;;;;;;;24.60;4.72;;;4.10;99.90;;;;;;4966527;28;20043;-89
2022/02/21 02:49:34;;;;;;;30.83;4.32;;;4.10;99.90;;;;;;4975799;28;20243;-89
2022/02/21 02:52:00;;;;;;;28.23;4.72;;;4.00;99.90;;;;;;4939423;28;20050;-89
2022/02/21 02:54:26;;;;;;;23.05;3.38;;;4.00;99.90;;;;;;4948028;28;20578;-90
2022/02/21 02:56:52;;;;;;;28.67;3.55;;;4.00;99.90;;;;;;4934389;28;20623;-92
2022/02/21 02:59:19;;;;;;;24.80;3.78;;;4.00;99.90;;;;;;4977828;28;20256;-90
2022/02/21 03:01:44;;;;;;;32.13;3.92;;;4.00;99.90;;;;;;4952264;28;20047;-88
2022/02/21 03:04:10;;;;;;;18.83;3.03;;;3.90;99.90;;;;;;4935754;28;20041;-90
2022/02/21 03:06:36;;;;;;;19.45;2.72;;;3.90;99.90;;;;;;4949543;28;20383;-88
2022/02/21 03:09:03;;;;;;;21.73;3.67;;;3.90;99.90;;;;;;4935281;28;20097;-90
2022/02/21 03:11:29;;;;;;;21.25;3.53;;;3.90;99.90;;;;;;4945070;28;20335;-88
2022/02/21 03:13:59;;;;;;;26.42;3.08;;;3.90;99.90;;;;;;4933793;28;20064;-89
2022/02/21 03:16:26;;;;;;;20.75;3.08;;;3.90;99.90;;;;;;4951913;28;20057;-90
2022/02/21 03:18:52;;;;;;;19.30;3.30;;;3.90;99.90;;;;;;4946371;28;20072;-89
2022/02/21 03:21:18;;;;;;;22.80;2.67;;;3.80;99.90;;;;;;4961945;28;20101;-89
2022/02/21 03:23:44;;;;;;;28.52;3.25;;;3.90;99.90;;;;;;4963985;28;20042;-88
2022/02/21 03:26:10;;;;;;;23.08;3.63;;;3.90;99.90;;;;;;4959371;28;20034;-89
2022/02/21 03:28:36;;;;;;;20.17;2.90;;;3.90;99.90;;;;;;4965071;28;20445;-88
2022/02/21 03:31:02;;;;;;;22.80;3.13;;;3.90;99.90;;;;;;4928430;28;20553;-87
2022/02/21 03:33:27;;;;;;;18.25;2.65;;;3.80;99.90;;;;;;4946146;28;20410;-90
2022/02/21 03:35:53;;;;;;;25.45;3.28;;;3.80;99.90;;;;;;4917629;28;20035;-88
2022/02/21 03:38:20;;;;;;;24.33;3.10;;;3.70;99.90;;;;;;4934655;28;20118;-88
2022/02/21 03:40:47;;;;;;;25.08;3.30;;;3.70;99.90;;;;;;4916799;28;20086;-89
2022/02/21 03:43:13;;;;;;;19.83;3.20;;;3.60;99.90;;;;;;4930620;28;20035;-89
2022/02/21 03:45:39;;;;;;;17.20;3.20;;;3.60;99.90;;;;;;4975279;28;20038;-89
2022/02/21 03:48:05;;;;;;;20.13;3.17;;;3.50;99.90;;;;;;4948419;28;20058;-90
2022/02/21 03:50:31;;;;;;;28.45;3.50;;;3.50;99.90;;;;;;4948148;28;20046;-90
2022/02/21 03:52:56;;;;;;;25.63;3.20;;;3.50;99.90;;;;;;4946345;28;20114;-87
2022/02/21 03:55:22;;;;;;;23.35;3.50;;;3.50;99.90;;;;;;4961303;28;20038;-90
2022/02/21 03:57:48;;;;;;;33.45;4.85;;;3.50;99.90;;;;;;4933967;28;20405;-89
2022/02/21 04:00:15;;;;;;;27.20;3.35;;;3.50;99.90;;;;;;4935526;28;20478;-89
2022/02/21 04:02:42;;;;;;;25.17;3.97;;;3.50;99.90;;;;;;4927540;28;20043;-89
2022/02/21 04:05:09;;;;;;;31.08;4.03;;;3.60;99.90;;;;;;4949706;28;20069;-90
2022/02/21 04:07:35;;;;;;;27.38;4.45;;;3.60;99.90;;;;;;4928323;28;20516;-90
2022/02/21 04:10:01;;;;;;;25.27;4.47;;;3.60;99.90;;;;;;4960116;28;20046;-88
2022/02/21 04:12:27;;;;;;;22.75;3.97;;;3.70;99.90;;;;;;4946263;28;20552;-89
2022/02/21 04:14:53;;;;;;;32.33;3.67;;;3.70;99.90;;;;;;4945008;28;20138;-88
2022/02/21 04:17:19;;;;;;;23.15;3.63;;;3.70;99.90;;;;;;4949370;28;20104;-89
2022/02/21 04:19:47;;;;;;;23.77;3.60;;;3.70;99.90;;;;;;4931741;28;20487;-91
2022/02/21 04:22:14;;;;;;;20.83;3.10;;;3.70;99.90;;;;;;4949060;28;20486;-89
2022/02/21 04:24:41;;;;;;;31.80;3.70;;;3.80;99.90;;;;;;4964597;28;20426;-90
2022/02/21 04:27:07;;;;;;;17.00;4.18;;;3.70;99.90;;;;;;4935686;28;20219;-90
2022/02/21 04:29:33;;;;;;;21.85;2.60;;;3.70;99.90;;;;;;4925660;28;20086;-88
2022/02/21 04:31:59;;;;;;;20.85;2.70;;;3.60;99.90;;;;;;4972576;28;20696;-90
2022/02/21 04:34:25;;;;;;;14.68;3.17;;;3.60;99.90;;;;;;4927508;28;20418;-89
2022/02/21 04:36:51;;;;;;;27.67;4.80;;;3.50;99.90;;;;;;4930714;28;20039;-88
2022/02/21 04:39:17;;;;;;;18.08;3.15;;;3.50;99.90;;;;;;4949683;28;20047;-92
2022/02/21 04:41:43;;;;;;;26.52;3.17;;;3.50;99.90;;;;;;4937457;28;20542;-91
2022/02/21 04:44:09;;;;;;;29.58;3.55;;;3.40;99.90;;;;;;4934006;28;20535;-90
2022/02/21 04:46:34;;;;;;;30.35;3.45;;;3.40;99.90;;;;;;4972609;28;20131;-89
2022/02/21 04:49:00;;;;;;;24.60;3.33;;;3.40;99.90;;;;;;4941069;28;20547;-89
2022/02/21 04:51:26;;;;;;;21.30;3.65;;;3.50;99.90;;;;;;4932261;28;20043;-88
2022/02/21 04:53:52;;;;;;;28.02;4.20;;;3.40;99.90;;;;;;4945663;28;20410;-90
2022/02/21 04:56:18;;;;;;;20.33;3.40;;;3.50;99.90;;;;;;4934177;28;20034;-90
2022/02/21 04:58:44;;;;;;;24.65;3.25;;;3.50;99.90;;;;;;4946309;28;20047;-91
2022/02/21 05:01:09;;;;;;;19.92;3.30;;;3.50;99.90;;;;;;4963230;28;20129;-91
2022/02/21 05:03:35;;;;;;;18.83;3.50;;;3.50;99.90;;;;;;4945631;28;20039;-89
2022/02/21 05:06:01;;;;;;;22.27;3.38;;;3.50;99.90;;;;;;4938152;28;20125;-91
2022/02/21 05:08:28;;;;;;;22.90;3.38;;;3.60;99.90;;;;;;4940166;28;20500;-89
2022/02/21 05:10:54;;;;;;;25.40;3.83;;;3.60;99.90;;;;;;4913355;28;20053;-90
2022/02/21 05:13:20;;;;;;;28.83;3.67;;;3.60;99.90;;;;;;4933570;28;20050;-89
2022/02/21 05:15:45;;;;;;;20.13;2.90;;;3.60;99.90;;;;;;4943961;28;20517;-89
2022/02/21 05:18:11;;;;;;;22.80;3.70;;;3.60;99.90;;;;;;4940868;28;20549;-89
2022/02/21 05:20:37;;;;;;;14.75;2.40;;;3.60;99.90;;;;;;4936103;28;20130;-90
2022/02/21 05:23:03;;;;;;;27.63;4.00;;;3.70;99.90;;;;;;4959898;28;20045;-89
2022/02/21 05:25:28;;;;;;;21.90;3.17;;;3.70;99.90;;;;;;4940508;28;20402;-90
2022/02/21 05:27:54;;;;;;;18.83;3.20;;;3.70;99.90;;;;;;4926470;28;20042;-88
2022/02/21 05:30:20;;;;;;;23.52;3.33;;;3.70;99.90;;;;;;4940908;28;20791;-90
2022/02/21 05:32:46;;;;;;;21.42;2.95;;;3.70;99.90;;;;;;4950822;28;20039;-90
2022/02/21 05:35:13;;;;;;;24.67;3.28;;;3.80;99.90;;;;;;4916381;28;20039;-91
2022/02/21 05:37:39;;;;;;;27.05;2.88;;;3.80;99.90;;;;;;4953248;28;20038;-89
2022/02/21 05:40:05;;;;;;;17.73;2.78;;;3.70;99.90;;;;;;4958187;28;20042;-91
2022/02/21 05:42:32;;;;;;;19.92;3.20;;;3.70;99.90;;;;;;4948642;28;20154;-89
2022/02/21 05:44:57;;;;;;;25.13;3.10;;;3.70;99.90;;;;;;4947037;28;20098;-89
2022/02/21 05:47:23;;;;;;;14.07;2.80;;;3.60;99.90;;;;;;4929225;28;20352;-91
2022/02/21 05:49:49;;;;;;;21.00;3.30;;;3.70;99.90;;;;;;4941168;28;20047;-88
2022/02/21 05:52:15;;;;;;;20.83;2.97;;;3.70;99.90;;;;;;4973770;28;20053;-90
2022/02/21 05:54:41;;;;;;;24.88;3.33;;;3.70;99.90;;;;;;4925673;28;20690;-90
2022/02/21 05:57:07;;;;;;;18.70;3.00;;;3.80;99.90;;;;;;4942132;28;20042;-89
2022/02/21 05:59:36;;;;;;;27.33;3.28;;;3.80;99.90;;;;;;4959284;28;20046;-91
2022/02/21 06:02:04;;;;;;;19.00;3.00;;;3.70;99.90;;;;;;4944988;28;20065;-92
2022/02/21 06:04:30;;;;;;;23.50;3.60;;;3.90;99.90;;;;;;4925437;28;20047;-89
2022/02/21 06:06:56;;;;;;;23.52;3.25;;;3.90;99.90;;;;;;4937271;28;20561;-91
2022/02/21 06:09:22;;;;;;;17.92;2.83;;;4.00;99.90;;;;;;4934382;28;20043;-91
2022/02/21 06:11:48;;;;;;;20.02;2.80;;;4.00;99.90;;;;;;4924638;28;20538;-89
2022/02/21 06:14:14;;;;;;;27.33;2.90;;;4.00;99.90;;;;;;4929315;28;20034;-90
2022/02/21 06:16:41;;;;;;;26.08;3.60;;;4.00;99.90;;;;;;4948867;28;20046;-90
2022/02/21 06:19:08;;;;;;;22.80;3.10;;;4.00;99.90;;;;;;4928190;28;20042;-92
2022/02/21 06:21:34;;;;;;;23.33;3.08;;;4.10;99.90;;;;;;4963664;28;20034;-91
2022/02/21 06:24:00;;;;;;;20.05;3.10;;;4.10;99.90;;;;;;4961684;28;20047;-89
2022/02/21 06:26:25;;;;;;;17.35;2.85;;;4.10;99.90;;;;;;4956537;28;20050;-90
2022/02/21 06:28:51;;;;;;;20.10;3.40;;;4.10;99.90;;;;;;4939958;28;20430;-89
2022/02/21 06:31:17;;;;;;;23.02;3.40;;;4.20;99.90;;;;;;4948766;28;20046;-89
2022/02/21 06:33:43;;;;;;;19.42;2.60;;;4.20;99.90;;;;;;4935004;28;20043;-93
2022/02/21 06:36:09;;;;;;;16.17;3.15;;;4.20;99.90;;;;;;4952617;28;20046;-89
2022/02/21 06:38:37;;;;;;;34.65;3.67;;;4.20;99.90;;;;;;4966924;28;20042;-91
2022/02/21 06:41:03;;;;;;;19.08;3.30;;;4.20;99.90;;;;;;4952094;28;20047;-88
2022/02/21 06:43:29;;;;;;;23.20;2.95;;;4.20;99.90;;;;;;4937977;28;20053;-91
2022/02/21 06:45:54;;;;;;;26.20;3.42;;;4.30;99.90;;;;;;4935404;28;20049;-89
2022/02/21 06:48:22;;;;;;;27.38;3.78;;;4.30;99.90;;;;;;4983455;28;20038;-87
2022/02/21 06:50:48;;;;;;;19.38;2.95;;;4.30;99.90;;;;;;4932822;28;20039;-91
2022/02/21 06:53:13;;;;;;;21.90;3.70;;;4.40;99.90;;;;;;4936658;28;20186;-89
2022/02/21 06:55:39;;;;;;;18.48;3.13;;;4.40;99.90;;;;;;4948172;28;20054;-90
2022/02/21 06:58:05;;;;;;;12.90;2.95;;;4.40;99.90;;;;;;4978404;28;20042;-91
2022/02/21 07:00:31;;;;;;;22.27;3.28;;;4.40;99.90;;;;;;4950318;28;20509;-90
2022/02/21 07:02:57;;;;;;;21.55;3.13;;;4.40;99.90;;;;;;4934173;28;20050;-90
2022/02/21 07:05:23;;;;;;;22.83;3.95;;;4.40;99.90;;;;;;4941666;28;20296;-92
2022/02/21 07:07:49;;;;;;;21.33;3.53;;;4.40;99.90;;;;;;4962184;28;20169;-87
2022/02/21 07:10:15;;;;;;;21.25;4.07;;;4.40;99.90;;;;;;4931070;28;20061;-89
2022/02/21 07:12:41;;;;;;;23.45;3.45;;;4.40;99.90;;;;;;4948857;28;20506;-89
2022/02/21 07:15:09;;;;;;;21.45;2.70;;;4.40;99.90;;;;;;4929225;28;20494;-91
2022/02/21 07:17:40;;;;;;;26.30;4.18;;;4.50;99.90;;;;;;4937509;28;20766;-90
2022/02/21 07:20:12;;;;;;;25.00;3.58;;;4.40;99.90;;;;;;4943480;28;20242;-91
2022/02/21 07:22:43;;;;;;;28.25;4.25;;;4.50;99.90;;;;;;4967438;28;20153;-89
2022/02/21 07:25:11;;;;;;;29.88;3.85;;;4.50;99.90;;;;;;4933287;28;20486;-90
2022/02/21 07:27:41;;;;;;;15.90;2.88;;;4.50;99.90;;;;;;4933374;29;20127;-91
2022/02/21 07:30:11;;;;;;;19.60;4.35;;;4.50;99.90;;;;;;4932744;28;20486;-89
2022/02/21 07:32:37;;;;;;;20.27;3.15;;;4.50;99.90;;;;;;4962745;28;20172;-89
2022/02/21 07:35:04;;;;;;;21.95;3.60;;;4.60;99.90;;;;;;4959658;28;20137;-90
2022/02/21 07:37:30;;;;;;;21.15;3.92;;;4.60;99.90;;;;;;4966914;28;20042;-89
2022/02/21 07:39:56;;;;;;;27.02;3.90;;;4.60;99.90;;;;;;4925591;28;20043;-91
2022/02/21 07:42:23;;;;;;;21.17;3.92;;;4.60;99.90;;;;;;4946993;28;20039;-90
2022/02/21 07:44:51;;;;;;;28.00;3.95;;;4.60;99.90;;;;;;4936015;28;20051;-90
2022/02/21 07:47:17;;;;;;;24.55;3.83;;;4.70;99.90;;;;;;4967193;28;20077;-90
2022/02/21 07:49:43;;;;;;;21.92;3.33;;;4.60;99.90;;;;;;4916679;28;20050;-91
2022/02/21 07:52:09;;;;;;;21.30;3.63;;;4.70;99.90;;;;;;4931780;28;20049;-91
2022/02/21 07:54:36;;;;;;;26.27;4.10;;;4.70;99.90;;;;;;4947077;28;20040;-89
2022/02/21 07:57:05;;;;;;;31.95;3.80;;;4.70;99.90;;;;;;4951653;28;20047;-90
2022/02/21 07:59:31;;;;;;;30.58;4.13;;;4.80;99.90;;;;;;4962124;28;20126;-92
2022/02/21 08:01:58;;;;;;;25.77;3.85;;;4.80;99.90;;;;;;4930942;28;20066;-89
2022/02/21 08:04:24;;;;;;;24.75;5.47;;;4.90;99.90;;;;;;4955770;28;20138;-91
2022/02/21 08:06:50;;;;;;;28.80;4.18;;;4.90;99.90;;;;;;4930967;28;20039;-90
2022/02/21 08:09:16;;;;;;;20.08;3.80;;;4.90;99.90;;;;;;4933452;28;20114;-88
2022/02/21 08:11:42;;;;;;;27.48;3.53;;;4.90;99.90;;;;;;4960401;28;20045;-90
2022/02/21 08:14:09;;;;;;;31.05;4.32;;;5.00;99.90;;;;;;4939886;28;20043;-88
2022/02/21 08:16:35;;;;;;;31.33;6.32;;;5.00;99.90;;;;;;4937692;28;20065;-91
2022/02/21 08:19:01;;;;;;;23.55;3.58;;;5.00;99.90;;;;;;4980252;28;20039;-91
2022/02/21 08:21:27;;;;;;;29.95;4.03;;;5.00;99.90;;;;;;4936487;28;20526;-90
2022/02/21 08:23:53;;;;;;;27.42;4.55;;;5.00;99.90;;;;;;4915884;28;20043;-90
2022/02/21 08:26:19;;;;;;;22.60;3.78;;;5.00;99.90;;;;;;4961960;28;20537;-90
2022/02/21 08:28:45;;;;;;;24.33;3.25;;;5.00;99.90;;;;;;4954881;28;20398;-91
2022/02/21 08:31:12;;;;;;;23.40;3.20;;;5.10;99.90;;;;;;4930051;28;20526;-89
2022/02/21 08:33:38;;;;;;;27.13;2.83;;;5.00;99.90;;;;;;4959009;28;20046;-90
2022/02/21 08:36:05;;;;;;;24.77;3.83;;;4.90;99.90;;;;;;4921375;28;20046;-91
2022/02/21 08:38:31;;;;;;;21.38;3.72;;;4.80;99.90;;;;;;4934955;28;20050;-89
2022/02/21 08:41:00;;;;;;;22.05;3.17;;;4.70;99.90;;;;;;4935420;28;20050;-91
2022/02/21 08:43:28;;;;;;;33.28;3.72;;;4.50;99.90;;;;;;4939664;28;20042;-92
2022/02/21 08:45:58;;;;;;;20.75;3.42;;;4.40;99.90;;;;;;4941964;28;20046;-91
2022/02/21 08:48:23;;;;;;;19.85;3.33;;;4.30;99.90;;;;;;4956072;28;20043;-88
2022/02/21 08:50:50;;;;;;;25.92;4.10;;;4.20;99.90;;;;;;4973798;28;20147;-90
2022/02/21 08:53:17;;;;;;;28.42;4.32;;;4.00;99.90;;;;;;4943141;28;20093;-89
2022/02/21 08:55:43;;;;;;;24.35;3.72;;;3.90;99.90;;;;;;4931013;29;20046;-89
2022/02/21 08:58:09;;;;;;;32.70;3.50;;;3.80;99.90;;;;;;4948765;28;20437;-92
2022/02/21 09:00:41;;;;;;;32.17;3.85;;;3.80;99.90;;;;;;4942562;28;20330;-88
2022/02/21 09:03:07;;;;;;;23.85;3.97;;;3.70;99.90;;;;;;4952374;28;20040;-90
2022/02/21 09:05:36;;;;;;;30.65;3.83;;;3.50;99.90;;;;;;4964079;28;20178;-91
2022/02/21 09:08:06;;;;;;;24.33;3.38;;;3.50;99.90;;;;;;4961195;28;20121;-91
2022/02/21 09:10:32;;;;;;;24.05;3.85;;;3.40;99.90;;;;;;4932281;28;20054;-89
2022/02/21 09:12:59;;;;;;;22.42;3.05;;;3.30;99.90;;;;;;4931738;28;20038;-89
2022/02/21 09:15:25;;;;;;;18.65;3.30;;;3.30;99.90;;;;;;4963726;28;20042;-91
2022/02/21 09:17:52;;;;;;;14.27;1.98;;;3.20;99.90;;;;;;4953316;28;20038;-88
2022/02/21 09:20:18;;;;;;;16.50;2.47;;;3.00;99.90;;;;;;4933387;28;20043;-91
2022/02/21 09:22:44;;;;;;;21.85;2.28;;;2.90;99.90;;;;;;4909991;28;20158;-90
2022/02/21 09:25:10;;;;;;;13.38;2.00;;;2.80;99.90;;;;;;4962619;28;20066;-90
2022/02/21 09:27:36;;;;;;;10.40;2.00;;;2.70;99.90;;;;;;4920529;28;20580;-88
2022/02/21 09:30:07;;;;;;;13.75;1.88;;;2.60;99.90;;;;;;4963763;28;20039;-88
2022/02/21 09:32:33;;;;;;;11.55;1.52;;;2.60;99.90;;;;;;4964798;28;20046;-90
2022/02/21 09:34:59;;;;;;;9.68;1.23;;;2.60;99.90;;;;;;4934374;28;20043;-88
2022/02/21 10:12:51;;;;;;;11.48;2.53;;;2.00;99.90;;;;;;4961903;28;20042;-89
2022/02/21 10:15:22;;;;;;;7.68;1.92;;;1.90;99.90;;;;;;4948893;28;20046;-89
2022/02/21 10:17:48;;;;;;;13.32;2.40;;;1.70;99.90;;;;;;4935141;28;20039;-89
2022/02/21 10:20:16;;;;;;;6.82;1.92;;;1.60;99.90;;;;;;4928853;28;20047;-90
2022/02/21 10:23:03;;;;;;;9.43;2.00;;;1.60;99.90;;;;;;4948173;28;20034;-91
2022/02/21 10:25:29;;;;;;;6.93;2.00;;;1.50;99.90;;;;;;4924015;28;20046;-89
2022/02/21 10:27:59;;;;;;;6.93;2.15;;;1.50;99.90;;;;;;4932926;28;20121;-89
2022/02/21 10:30:25;;;;;;;8.38;2.50;;;1.50;99.90;;;;;;4941611;28;20127;-88
2022/02/21 10:32:51;;;;;;;10.38;2.80;;;1.50;99.90;;;;;;4944679;28;20069;-90
2022/02/21 10:35:22;;;;;;;12.27;2.80;;;1.50;99.90;;;;;;4941539;28;20085;-91
2022/02/21 10:38:03;;;;;;;14.95;3.03;;;1.60;99.90;;;;;;4940943;28;20152;-89
2022/02/21 10:40:37;;;;;;;12.48;2.97;;;1.60;99.90;;;;;;4960169;28;20040;-90
2022/02/21 10:43:22;;;;;;;7.13;2.67;;;1.60;99.90;;;;;;4951210;28;20098;-91
2022/02/21 10:45:48;;;;;;;12.07;2.53;;;1.70;99.90;;;;;;4938106;28;20059;-90
2022/02/21 10:48:16;;;;;;;9.95;2.17;;;1.70;99.90;;;;;;4931902;28;21114;-91
2022/02/21 10:51:02;;;;;;;4.97;2.10;;;1.70;99.90;;;;;;4944257;28;20043;-90
2022/02/21 10:53:46;;;;;;;7.95;1.63;;;1.60;99.90;;;;;;4918376;28;20086;-90
2022/02/21 10:56:12;;;;;;;8.80;1.50;;;1.60;99.90;;;;;;4933285;28;20182;-90
2022/02/21 10:58:39;;;;;;;5.30;1.75;;;1.50;99.90;;;;;;4944169;28;20043;-90
2022/02/21 11:01:07;;;;;;;7.00;1.88;;;1.40;99.90;;;;;;4952166;28;20043;-90
2022/02/21 11:03:33;;;;;;;3.38;1.05;;;1.40;99.90;;;;;;4950314;28;20429;-92
2022/02/21 11:06:04;;;;;;;3.25;1.52;;;1.30;99.90;;;;;;4934562;28;20058;-89
2022/02/21 11:08:31;;;;;;;3.85;1.20;;;1.30;99.90;;;;;;4927501;28;20105;-90
2022/02/21 11:11:09;;;;;;;3.78;1.30;;;1.30;99.90;;;;;;4934208;28;20078;-91
2022/02/21 11:13:36;;;;;;;6.90;1.50;;;1.20;99.90;;;;;;4930323;29;20101;-90
2022/02/21 11:16:03;;;;;;;4.78;1.58;;;1.10;99.90;;;;;;4947395;28;20053;-89
2022/02/21 11:18:29;;;;;;;3.88;1.17;;;1.20;99.90;;;;;;4948547;28;20149;-89
2022/02/21 11:20:55;;;;;;;5.22;1.50;;;1.20;99.90;;;;;;4943429;28;20043;-87
2022/02/21 11:23:21;;;;;;;6.25;1.63;;;1.10;99.90;;;;;;4928554;28;20037;-89
2022/02/21 11:26:17;;;;;;;3.65;1.50;;;1.10;99.90;;;;;;4930426;28;20035;-89
2022/02/21 11:28:51;;;;;;;7.30;1.60;;;1.10;99.90;;;;;;4949123;28;20541;-88
2022/02/21 11:31:27;;;;;;;4.78;1.45;;;1.30;99.90;;;;;;4941803;28;20116;-89
2022/02/21 11:33:59;;;;;;;4.43;1.58;;;1.30;99.90;;;;;;4943276;28;20393;-88
2022/02/21 11:36:27;;;;;;;6.60;2.63;;;1.40;99.90;;;;;;4947330;28;20039;-92
2022/02/21 11:38:55;;;;;;;9.40;2.28;;;1.60;99.90;;;;;;4947429;28;20053;-89
2022/02/21 11:41:35;;;;;;;5.60;2.80;;;1.70;99.90;;;;;;4942293;28;20301;-90
2022/02/21 11:44:24;;;;;;;7.55;2.60;;;1.90;99.90;;;;;;4948261;28;20541;-92
2022/02/21 11:46:49;;;;;;;9.30;3.05;;;2.00;99.90;;;;;;4951020;28;20039;-90
2022/02/21 11:49:26;;;;;;;14.45;3.08;;;2.10;99.90;;;;;;4921284;28;20035;-90
2022/02/21 11:51:52;;;;;;;20.90;3.60;;;2.20;99.90;;;;;;4937051;28;20043;-88
2022/02/21 11:54:20;;;;;;;12.32;3.88;;;2.30;99.90;;;;;;4949201;28;20030;-91
2022/02/21 11:56:49;;;;;;;14.88;3.58;;;2.30;99.90;;;;;;4946726;28;20496;-91
2022/02/21 11:59:21;;;;;;;16.58;3.80;;;2.50;99.90;;;;;;4940665;28;20090;-91
2022/02/21 12:02:01;;;;;;;17.37;4.40;;;2.60;99.90;;;;;;4944536;28;20035;-90
2022/02/21 12:04:27;;;;;;;17.73;4.97;;;2.70;99.90;;;;;;4946351;28;20298;-91
2022/02/21 12:06:56;;;;;;;25.52;5.22;;;2.90;99.90;;;;;;4940725;28;20078;-90
2022/02/21 12:09:22;;;;;;;22.30;6.20;;;3.00;99.90;;;;;;4943093;28;20070;-94
2022/02/21 12:11:48;;;;;;;23.95;5.22;;;3.20;99.90;;;;;;4945396;28;20046;-92
2022/02/21 12:14:17;;;;;;;13.98;5.00;;;3.30;99.90;;;;;;4934027;28;20039;-92
2022/02/21 12:17:14;;;;;;;24.60;5.90;;;3.40;99.90;;;;;;4939961;28;20098;-91
2022/02/21 12:19:40;;;;;;;31.45;6.95;;;3.50;99.90;;;;;;4940593;28;20336;-90
2022/02/21 12:22:14;;;;;;;30.08;6.70;;;3.70;99.90;;;;;;4932572;28;20122;-91
2022/02/21 12:25:08;;;;;;;33.55;7.22;;;3.80;99.90;;;;;;4940241;28;20050;-90
2022/02/21 12:27:34;;;;;;;34.10;6.05;;;3.90;99.90;;;;;;4953035;28;20126;-94
2022/02/21 12:30:00;;;;;;;34.97;6.85;;;4.00;99.90;;;;;;4928159;29;20043;-92
2022/02/21 12:32:27;;;;;;;35.42;6.80;;;4.10;99.90;;;;;;4950079;28;20042;-91
2022/02/21 12:34:54;;;;;;;38.05;6.70;;;4.20;99.90;;;;;;4948061;28;20039;-93
2022/02/21 12:37:21;;;;;;;37.78;6.18;;;4.30;99.90;;;;;;4935975;28;20502;-90
2022/02/21 12:39:47;;;;;;;37.35;6.40;;;4.40;99.90;;;;;;4945723;28;20525;-92
2022/02/21 12:42:16;;;;;;;42.72;6.68;;;4.50;99.90;;;;;;4945379;28;20038;-91
2022/02/21 12:44:42;;;;;;;52.58;6.65;;;4.70;99.90;;;;;;4950349;28;20498;-91
2022/02/21 12:47:14;;;;;;;59.05;6.53;;;4.80;99.90;;;;;;4926746;28;20162;-91
2022/02/21 12:49:50;;;;;;;66.63;8.13;;;4.90;99.90;;;;;;4948070;28;20090;-91
2022/02/21 12:52:18;;;;;;;54.00;8.45;;;5.10;99.90;;;;;;4950876;28;20125;-93
2022/02/21 12:54:58;;;;;;;67.57;7.90;;;5.20;99.90;;;;;;4933816;28;20511;-90
2022/02/21 12:57:26;;;;;;;70.90;7.78;;;5.30;99.90;;;;;;4950278;28;20224;-92
2022/02/21 12:59:56;;;;;;;75.68;8.13;;;5.50;99.90;;;;;;4943432;29;20107;-91
2022/02/21 13:02:23;;;;;;;87.25;10.70;;;5.60;99.90;;;;;;4935354;28;20050;-92
2022/02/21 13:04:49;;;;;;;74.80;8.30;;;5.70;99.90;;;;;;4948527;28;20377;-92
2022/02/21 13:07:16;;;;;;;66.38;7.68;;;5.90;99.90;;;;;;4937455;28;20094;-93
2022/02/21 13:09:45;;;;;;;84.75;7.78;;;6.00;99.90;;;;;;4949668;28;20109;-93
2022/02/21 13:12:20;;;;;;;96.10;8.35;;;6.10;99.90;;;;;;4915431;29;20291;-92
2022/02/21 13:14:48;;;;;;;78.70;7.78;;;6.10;99.90;;;;;;4945059;29;20126;-91
2022/02/21 13:17:18;;;;;;;67.60;6.90;;;6.20;99.90;;;;;;4954035;28;20047;-93
2022/02/21 13:19:49;;;;;;;75.07;7.07;;;6.20;99.90;;;;;;4935756;28;20051;-92
2022/02/21 13:22:56;;;;;;;82.47;8.00;;;6.30;99.90;;;;;;4946460;29;20067;-91
2022/02/21 13:25:23;;;;;;;73.82;6.70;;;6.40;99.90;;;;;;4940186;28;20039;-93